Whites, Mississippi
Current Conditions -  °F | °C
As of 2:35 PM on Tuesday 25 Nov 2014 (Local Time) from KSTF Reporting Station
Clear Clear  
Wind Chill: 45°   Ceiling: Unl
Heat Index: 48°   Visibility: NA
Dew Point: 30°   Wind: 7mph
Humidity: 50%   Direction: 310°NW
Pressure: 30.14"   Gusts: NA
Location:  33.6681°N, 88.7618°W
Report Text: KSTF 252035Z AUTO 31006KT CLR 09/M01 A3014 RMK AO2 PWINO
Loading
Personal Weather Stations






























Interactive Weather Map New forecast layout! Learn more

10-Day Weather Forecast

Advertisements
Track Severe Weather on mobile